createdAt,value
2017-04-24T00:00:25.734Z,1009.3
2017-04-24T00:01:06.255Z,1009.32
2017-04-24T00:01:46.772Z,1009.34
2017-04-24T00:02:27.290Z,1009.3
2017-04-24T00:03:07.810Z,1009.33
2017-04-24T00:03:48.338Z,1009.32
2017-04-24T00:04:28.859Z,1009.24
2017-04-24T00:05:09.436Z,1009.29
2017-04-24T00:05:49.947Z,1009.25
2017-04-24T00:06:30.469Z,1009.25
2017-04-24T00:07:10.993Z,1009.22
2017-04-24T00:07:51.545Z,1009.18
2017-04-24T00:08:32.063Z,1009.2
2017-04-24T00:09:12.592Z,1009.17
2017-04-24T00:09:53.118Z,1009.18
2017-04-24T00:10:33.640Z,1009.15
2017-04-24T00:11:14.156Z,1009.23
2017-04-24T00:11:54.671Z,1009.16
2017-04-24T00:12:35.192Z,1009.16
2017-04-24T00:13:15.709Z,1009.11
2017-04-24T00:13:56.216Z,1009.14
2017-04-24T00:14:36.736Z,1009.13
2017-04-24T00:15:17.281Z,1009.14
2017-04-24T00:15:57.840Z,1009.1
2017-04-24T00:16:38.347Z,1009.09
2017-04-24T00:17:18.862Z,1009.07
2017-04-24T00:17:59.372Z,1009.06
2017-04-24T00:18:39.879Z,1009.07
2017-04-24T00:19:20.404Z,1009.06
2017-04-24T00:20:00.912Z,1009.03
2017-04-24T00:20:41.445Z,1009.05
2017-04-24T00:21:21.977Z,1009.04
2017-04-24T00:22:02.495Z,1009.06
2017-04-24T00:22:43.005Z,1009.02
2017-04-24T00:23:23.526Z,1009.04
2017-04-24T00:24:04.042Z,1009.01
2017-04-24T00:24:44.559Z,1008.97
2017-04-24T00:25:25.086Z,1008.97
2017-04-24T00:26:05.599Z,1008.96
2017-04-24T00:26:46.109Z,1008.95
2017-04-24T00:27:26.629Z,1008.9
2017-04-24T00:28:07.147Z,1008.92
2017-04-24T00:28:47.661Z,1008.92
2017-04-24T00:29:28.180Z,1008.93
2017-04-24T00:30:08.695Z,1008.9
2017-04-24T00:30:49.198Z,1008.9
2017-04-24T00:31:29.720Z,1008.9
2017-04-24T00:32:10.236Z,1008.88
2017-04-24T00:32:50.755Z,1008.89
2017-04-24T00:33:31.287Z,1008.87
2017-04-24T00:34:11.803Z,1008.81
2017-04-24T00:34:52.324Z,1008.87
2017-04-24T00:35:32.840Z,1008.82
2017-04-24T00:36:13.366Z,1008.81
2017-04-24T00:36:53.878Z,1008.84
2017-04-24T00:37:34.400Z,1008.86
2017-04-24T00:38:14.924Z,1008.81
2017-04-24T00:38:55.451Z,1008.84
2017-04-24T00:39:35.976Z,1008.82
2017-04-24T00:40:16.489Z,1008.84
2017-04-24T00:40:57.002Z,1008.81
2017-04-24T00:41:37.515Z,1008.8
2017-04-24T00:42:18.040Z,1008.8
2017-04-24T00:42:58.559Z,1008.76
2017-04-24T00:43:39.075Z,1008.78
2017-04-24T00:44:19.594Z,1008.78
2017-04-24T00:45:00.111Z,1008.76
2017-04-24T00:45:40.629Z,1008.77
2017-04-24T00:46:21.154Z,1008.77
2017-04-24T00:47:01.673Z,1008.79
2017-04-24T00:47:42.191Z,1008.82
2017-04-24T00:48:22.706Z,1008.77
2017-04-24T00:49:03.230Z,1008.78
2017-04-24T00:49:43.747Z,1008.73
2017-04-24T00:50:24.267Z,1008.74
2017-04-24T00:51:04.791Z,1008.77
2017-04-24T00:51:45.309Z,1008.75
2017-04-24T00:52:25.826Z,1008.77
2017-04-24T00:53:06.338Z,1008.79
2017-04-24T00:53:46.858Z,1008.74
2017-04-24T00:54:27.378Z,1008.78
2017-04-24T00:55:07.894Z,1008.72
2017-04-24T00:55:48.415Z,1008.72
2017-04-24T00:56:28.932Z,1008.7
2017-04-24T00:57:09.456Z,1008.7
2017-04-24T00:57:49.978Z,1008.74
2017-04-24T00:58:30.495Z,1008.73
2017-04-24T00:59:11.021Z,1008.71
2017-04-24T00:59:51.531Z,1008.71
2017-04-24T01:00:32.051Z,1008.73
2017-04-24T01:01:12.570Z,1008.68
2017-04-24T01:01:53.083Z,1008.67
2017-04-24T01:02:33.639Z,1008.71
2017-04-24T01:03:14.117Z,1008.72
2017-04-24T01:03:54.638Z,1008.7
2017-04-24T01:04:35.148Z,1008.71
2017-04-24T01:05:15.670Z,1008.64
2017-04-24T01:05:56.197Z,1008.64
2017-04-24T01:06:36.718Z,1008.64
2017-04-24T01:07:17.234Z,1008.65
2017-04-24T01:07:57.753Z,1008.64
2017-04-24T01:08:38.261Z,1008.58
2017-04-24T01:09:18.783Z,1008.66
2017-04-24T01:09:59.301Z,1008.6
2017-04-24T01:10:39.814Z,1008.62
2017-04-24T01:11:20.335Z,1008.64
2017-04-24T01:12:00.863Z,1008.62
2017-04-24T01:12:41.382Z,1008.62
2017-04-24T01:13:21.910Z,1008.62
2017-04-24T01:14:02.425Z,1008.55
2017-04-24T01:14:42.940Z,1008.58
2017-04-24T01:15:23.459Z,1008.54
2017-04-24T01:16:03.979Z,1008.57
2017-04-24T01:16:44.505Z,1008.48
2017-04-24T01:17:25.026Z,1008.51
2017-04-24T01:18:05.557Z,1008.49
2017-04-24T01:18:46.088Z,1008.51
2017-04-24T01:19:26.605Z,1008.48
2017-04-24T01:20:07.132Z,1008.49
2017-04-24T01:20:47.650Z,1008.46
2017-04-24T01:21:28.171Z,1008.48
2017-04-24T01:22:08.704Z,1008.45
2017-04-24T01:22:49.219Z,1008.47
2017-04-24T01:23:29.733Z,1008.45
2017-04-24T01:24:10.253Z,1008.44
2017-04-24T01:24:50.760Z,1008.46
2017-04-24T01:25:31.274Z,1008.45
2017-04-24T01:26:11.787Z,1008.44
2017-04-24T01:26:52.319Z,1008.43
2017-04-24T01:27:32.840Z,1008.44
2017-04-24T01:28:13.357Z,1008.42
2017-04-24T01:28:53.869Z,1008.44
2017-04-24T01:29:34.385Z,1008.42
2017-04-24T01:30:14.914Z,1008.42
2017-04-24T01:30:55.438Z,1008.38
2017-04-24T01:31:35.954Z,1008.35
2017-04-24T01:32:16.484Z,1008.37
2017-04-24T01:32:57.007Z,1008.36
2017-04-24T01:33:37.532Z,1008.33
2017-04-24T01:34:18.044Z,1008.35
2017-04-24T01:34:58.553Z,1008.35
2017-04-24T01:35:39.067Z,1008.31
2017-04-24T01:36:19.584Z,1008.35
2017-04-24T01:37:00.107Z,1008.33
2017-04-24T01:37:40.628Z,1008.32
2017-04-24T01:38:21.141Z,1008.31
2017-04-24T01:39:01.659Z,1008.3
2017-04-24T01:39:42.175Z,1008.26
2017-04-24T01:40:22.760Z,1008.25
2017-04-24T01:41:03.293Z,1008.26
2017-04-24T01:41:43.808Z,1008.21
2017-04-24T01:42:24.329Z,1008.18
2017-04-24T01:43:04.844Z,1008.16
2017-04-24T01:43:45.361Z,1008.14
2017-04-24T01:44:25.878Z,1008.11
2017-04-24T01:45:06.391Z,1008.1
2017-04-24T01:45:46.910Z,1008.09
2017-04-24T01:46:27.434Z,1008.09
2017-04-24T01:47:07.956Z,1008.11
2017-04-24T01:47:48.504Z,1008.09
2017-04-24T01:48:29.012Z,1008.1
2017-04-24T01:49:09.519Z,1008.11
2017-04-24T01:49:50.041Z,1008.05
2017-04-24T01:50:30.556Z,1008.02
2017-04-24T01:51:11.068Z,1008
2017-04-24T01:51:51.587Z,1008
2017-04-24T01:52:32.099Z,1007.99
2017-04-24T01:53:12.618Z,1008.03
2017-04-24T01:53:53.154Z,1008
2017-04-24T01:54:33.665Z,1007.98
2017-04-24T01:55:14.206Z,1008.02
2017-04-24T01:55:54.737Z,1008
2017-04-24T01:56:35.257Z,1008.02
2017-04-24T01:57:15.770Z,1008
2017-04-24T01:57:56.286Z,1007.96
2017-04-24T01:58:36.813Z,1007.93
2017-04-24T01:59:17.321Z,1007.94
2017-04-24T01:59:57.834Z,1007.95
2017-04-24T02:00:38.346Z,1007.92
2017-04-24T02:01:18.873Z,1007.9
2017-04-24T02:01:59.397Z,1007.86
2017-04-24T02:02:39.913Z,1007.91
2017-04-24T02:03:20.436Z,1007.88
2017-04-24T02:04:00.969Z,1007.87
2017-04-24T02:04:41.528Z,1007.82
2017-04-24T02:05:22.049Z,1007.85
2017-04-24T02:06:02.570Z,1007.83
2017-04-24T02:06:43.087Z,1007.85
2017-04-24T02:07:23.597Z,1007.78
2017-04-24T02:08:04.115Z,1007.77
2017-04-24T02:08:44.629Z,1007.82
2017-04-24T02:09:25.146Z,1007.77
2017-04-24T02:10:05.664Z,1007.81
2017-04-24T02:10:46.181Z,1007.75
2017-04-24T02:11:26.697Z,1007.75
2017-04-24T02:12:07.209Z,1007.78
2017-04-24T02:12:47.734Z,1007.74
2017-04-24T02:13:28.246Z,1007.75
2017-04-24T02:14:08.766Z,1007.77
2017-04-24T02:14:49.298Z,1007.73
2017-04-24T02:15:29.825Z,1007.71
2017-04-24T02:16:10.330Z,1007.7
2017-04-24T02:16:50.847Z,1007.67
2017-04-24T02:17:31.374Z,1007.67
2017-04-24T02:18:11.899Z,1007.66
2017-04-24T02:18:52.411Z,1007.7
2017-04-24T02:19:32.922Z,1007.66
2017-04-24T02:20:13.460Z,1007.62
2017-04-24T02:20:53.968Z,1007.6
2017-04-24T02:21:34.490Z,1007.65
2017-04-24T02:22:15.007Z,1007.61
2017-04-24T02:22:55.514Z,1007.65
2017-04-24T02:23:36.043Z,1007.58
2017-04-24T02:24:16.561Z,1007.64
2017-04-24T02:24:57.092Z,1007.63
2017-04-24T02:25:37.657Z,1007.64
2017-04-24T02:26:18.146Z,1007.64
2017-04-24T02:26:58.693Z,1007.62
2017-04-24T02:27:39.217Z,1007.61
2017-04-24T02:28:19.740Z,1007.56
2017-04-24T02:29:00.265Z,1007.58
2017-04-24T02:29:40.811Z,1007.62
2017-04-24T02:30:21.336Z,1007.61
2017-04-24T02:31:01.855Z,1007.51
2017-04-24T02:31:42.377Z,1007.56
2017-04-24T02:32:22.893Z,1007.53
2017-04-24T02:33:03.404Z,1007.55
2017-04-24T02:33:43.922Z,1007.52
2017-04-24T02:34:24.438Z,1007.57
2017-04-24T02:35:04.954Z,1007.57
2017-04-24T02:35:45.487Z,1007.6
2017-04-24T02:36:26.003Z,1007.52
2017-04-24T02:37:06.522Z,1007.54
2017-04-24T02:37:47.038Z,1007.51
2017-04-24T02:38:27.557Z,1007.47
2017-04-24T02:39:08.081Z,1007.49
2017-04-24T02:39:48.598Z,1007.46
2017-04-24T02:40:29.110Z,1007.41
2017-04-24T02:41:09.637Z,1007.45
2017-04-24T02:41:50.146Z,1007.45
2017-04-24T02:42:30.661Z,1007.47
2017-04-24T02:43:11.187Z,1007.44
2017-04-24T02:43:51.710Z,1007.47
2017-04-24T02:44:32.235Z,1007.45
2017-04-24T02:45:12.750Z,1007.5
2017-04-24T02:45:53.268Z,1007.45
2017-04-24T02:46:33.769Z,1007.46
2017-04-24T02:47:14.285Z,1007.41
2017-04-24T02:47:54.806Z,1007.38
2017-04-24T02:48:35.321Z,1007.39
2017-04-24T02:49:15.856Z,1007.36
2017-04-24T02:49:56.370Z,1007.36
2017-04-24T02:50:36.896Z,1007.37
2017-04-24T02:51:17.420Z,1007.37
2017-04-24T02:51:57.942Z,1007.35
2017-04-24T02:52:38.472Z,1007.33
2017-04-24T02:53:18.997Z,1007.38
2017-04-24T02:53:59.514Z,1007.33
2017-04-24T02:54:40.023Z,1007.31
2017-04-24T02:55:20.542Z,1007.33
2017-04-24T02:56:01.061Z,1007.35
2017-04-24T02:56:41.607Z,1007.32
2017-04-24T02:57:22.130Z,1007.29
2017-04-24T02:58:02.649Z,1007.31
2017-04-24T02:58:43.163Z,1007.29
2017-04-24T02:59:23.693Z,1007.35
2017-04-24T03:00:04.230Z,1007.3
2017-04-24T03:00:44.752Z,1007.3
2017-04-24T03:01:25.266Z,1007.28
2017-04-24T03:02:05.786Z,1007.2
2017-04-24T03:02:46.303Z,1007.28
2017-04-24T03:03:26.815Z,1007.28
2017-04-24T03:04:07.313Z,1007.25
2017-04-24T03:04:47.849Z,1007.24
2017-04-24T03:05:28.441Z,1007.26
2017-04-24T03:06:08.990Z,1007.27
2017-04-24T03:06:49.504Z,1007.27
2017-04-24T03:07:30.015Z,1007.29
2017-04-24T03:08:10.533Z,1007.21
2017-04-24T03:08:51.056Z,1007.27
2017-04-24T03:09:31.582Z,1007.25
2017-04-24T03:10:12.113Z,1007.2
2017-04-24T03:10:52.630Z,1007.24
2017-04-24T03:11:33.161Z,1007.21
2017-04-24T03:12:13.690Z,1007.18
2017-04-24T03:12:54.203Z,1007.24
2017-04-24T03:13:34.721Z,1007.28
2017-04-24T03:14:15.303Z,1007.21
2017-04-24T03:14:55.777Z,1007.2
2017-04-24T03:15:36.301Z,1007.17
2017-04-24T03:16:16.819Z,1007.18
2017-04-24T03:16:57.338Z,1007.19
2017-04-24T03:17:37.851Z,1007.17
2017-04-24T03:18:18.377Z,1007.15
2017-04-24T03:18:58.930Z,1007.15
2017-04-24T03:19:39.443Z,1007.09
2017-04-24T03:20:20.014Z,1007.1
2017-04-24T03:21:00.526Z,1007.08
2017-04-24T03:21:41.035Z,1007.08
2017-04-24T03:22:21.565Z,1007.05
2017-04-24T03:23:02.080Z,1007.05
2017-04-24T03:23:42.603Z,1007.02
2017-04-24T03:24:23.128Z,1007.01
2017-04-24T03:25:03.638Z,1007.05
2017-04-24T03:25:44.159Z,1007.01
2017-04-24T03:26:24.691Z,1007.05
2017-04-24T03:27:05.217Z,1007.03
2017-04-24T03:27:45.736Z,1007.04
2017-04-24T03:28:26.251Z,1006.96
2017-04-24T03:29:06.770Z,1006.96
2017-04-24T03:29:47.286Z,1007.01
2017-04-24T03:30:27.808Z,1006.97
2017-04-24T03:31:08.326Z,1006.93
2017-04-24T03:31:48.960Z,1006.97
2017-04-24T03:32:29.672Z,1006.95
2017-04-24T03:33:10.292Z,1007
2017-04-24T03:33:50.734Z,1006.96
2017-04-24T03:34:31.293Z,1006.96
2017-04-24T03:35:11.820Z,1006.94
2017-04-24T03:35:52.348Z,1006.99
2017-04-24T03:36:32.856Z,1006.96
2017-04-24T03:37:13.378Z,1006.98
2017-04-24T03:37:53.894Z,1006.97
2017-04-24T03:38:34.727Z,1006.95
2017-04-24T03:39:15.546Z,1006.96
2017-04-24T03:39:56.348Z,1006.96
2017-04-24T03:40:36.733Z,1006.92
2017-04-24T03:41:17.252Z,1006.97
2017-04-24T03:41:57.765Z,1006.94
2017-04-24T03:42:38.303Z,1006.91
2017-04-24T03:43:18.832Z,1006.93
2017-04-24T03:43:59.345Z,1006.97
2017-04-24T03:44:39.916Z,1006.99
2017-04-24T03:45:20.453Z,1006.97
2017-04-24T03:46:01.220Z,1006.92
2017-04-24T03:46:41.756Z,1006.93
2017-04-24T03:47:22.278Z,1006.95
2017-04-24T03:48:02.789Z,1006.96
2017-04-24T03:48:43.299Z,1006.92
2017-04-24T03:49:23.815Z,1006.98
2017-04-24T03:50:04.327Z,1007.01
2017-04-24T03:50:44.934Z,1006.94
2017-04-24T03:51:25.676Z,1006.94
2017-04-24T03:52:06.031Z,1006.96
2017-04-24T03:52:46.539Z,1006.94
2017-04-24T03:53:27.056Z,1006.87
2017-04-24T03:54:07.580Z,1006.91
2017-04-24T03:54:48.095Z,1006.88
2017-04-24T03:55:28.610Z,1006.83
2017-04-24T03:56:09.134Z,1006.86
2017-04-24T03:56:49.717Z,1006.87
2017-04-24T03:57:30.210Z,1006.82
2017-04-24T03:58:10.916Z,1006.84
2017-04-24T03:58:51.617Z,1006.81
2017-04-24T03:59:32.122Z,1006.83
2017-04-24T04:00:12.642Z,1006.75
2017-04-24T04:00:53.158Z,1006.73
2017-04-24T04:01:33.676Z,1006.79
2017-04-24T04:02:14.192Z,1006.79
2017-04-24T04:02:55.041Z,1006.83
2017-04-24T04:03:35.750Z,1006.79
2017-04-24T04:04:16.271Z,1006.79
2017-04-24T04:04:56.812Z,1006.75
2017-04-24T04:05:37.313Z,1006.73
2017-04-24T04:06:17.835Z,1006.7
2017-04-24T04:06:58.351Z,1006.73
2017-04-24T04:07:38.869Z,1006.7
2017-04-24T04:08:19.490Z,1006.67
2017-04-24T04:09:00.084Z,1006.71
2017-04-24T04:09:40.763Z,1006.64
2017-04-24T04:10:21.309Z,1006.65
2017-04-24T04:11:01.829Z,1006.64
2017-04-24T04:11:42.349Z,1006.6
2017-04-24T04:12:22.869Z,1006.61
2017-04-24T04:13:03.375Z,1006.59
2017-04-24T04:13:43.900Z,1006.62
2017-04-24T04:14:24.575Z,1006.61
2017-04-24T04:15:05.394Z,1006.61
2017-04-24T04:15:46.662Z,1006.6
2017-04-24T04:16:27.093Z,1006.62
2017-04-24T04:17:07.632Z,1006.57
2017-04-24T04:17:48.275Z,1006.59
2017-04-24T04:18:28.789Z,1006.55
2017-04-24T04:19:09.324Z,1006.55
2017-04-24T04:19:49.821Z,1006.53
2017-04-24T04:20:30.806Z,1006.55
2017-04-24T04:21:11.345Z,1006.5
2017-04-24T04:23:09.696Z,1006.55
2017-04-24T04:23:50.214Z,1006.51
2017-04-24T04:24:30.731Z,1006.52
2017-04-24T04:25:11.249Z,1006.45
2017-04-24T04:25:51.769Z,1006.46
2017-04-24T04:26:32.268Z,1006.46
2017-04-24T04:27:12.791Z,1006.48
2017-04-24T04:27:53.308Z,1006.46
2017-04-24T04:28:33.834Z,1006.47
2017-04-24T04:29:14.387Z,1006.42
2017-04-24T04:29:54.904Z,1006.46
2017-04-24T04:30:35.452Z,1006.45
2017-04-24T04:31:15.951Z,1006.46
2017-04-24T04:31:56.469Z,1006.47
2017-04-24T04:32:36.989Z,1006.46
2017-04-24T04:33:17.519Z,1006.44
2017-04-24T04:33:58.021Z,1006.42
2017-04-24T04:34:38.537Z,1006.44
2017-04-24T04:35:19.046Z,1006.43
2017-04-24T04:37:17.316Z,1006.47
2017-04-24T04:37:57.837Z,1006.43
2017-04-24T04:38:38.361Z,1006.44
2017-04-24T04:39:18.886Z,1006.44
2017-04-24T04:39:59.396Z,1006.45
2017-04-24T04:40:39.916Z,1006.48
2017-04-24T04:41:20.435Z,1006.47
2017-04-24T04:42:00.950Z,1006.53
2017-04-24T04:42:41.470Z,1006.53
2017-04-24T04:43:21.996Z,1006.51
2017-04-24T04:44:02.510Z,1006.54
2017-04-24T04:44:43.050Z,1006.54
2017-04-24T04:45:23.563Z,1006.56
2017-04-24T04:46:04.082Z,1006.53
2017-04-24T04:46:44.597Z,1006.56
2017-04-24T04:47:25.112Z,1006.54
2017-04-24T04:48:05.634Z,1006.54
2017-04-24T04:48:46.146Z,1006.54
2017-04-24T04:49:26.663Z,1006.5
2017-04-24T04:50:07.199Z,1006.51
2017-04-24T04:50:47.705Z,1006.56
2017-04-24T04:51:28.245Z,1006.59
2017-04-24T04:52:08.749Z,1006.62
2017-04-24T04:52:49.267Z,1006.6
2017-04-24T04:53:29.785Z,1006.63
2017-04-24T04:54:10.300Z,1006.59
2017-04-24T04:54:50.813Z,1006.59
2017-04-24T04:55:31.330Z,1006.57
2017-04-24T04:56:11.853Z,1006.6
2017-04-24T04:56:52.369Z,1006.55
2017-04-24T04:57:32.889Z,1006.59
2017-04-24T04:58:13.410Z,1006.61
2017-04-24T04:58:53.937Z,1006.57
2017-04-24T04:59:34.465Z,1006.58
2017-04-24T05:00:14.995Z,1006.55
2017-04-24T05:00:55.539Z,1006.58
2017-04-24T05:01:36.054Z,1006.57
2017-04-24T05:02:16.570Z,1006.55
2017-04-24T05:02:57.090Z,1006.52
2017-04-24T05:03:37.611Z,1006.59
2017-04-24T05:04:18.125Z,1006.58
2017-04-24T05:04:58.648Z,1006.59
2017-04-24T05:05:39.180Z,1006.56
2017-04-24T05:06:19.698Z,1006.52
2017-04-24T05:07:00.224Z,1006.51
2017-04-24T05:07:40.737Z,1006.55
2017-04-24T05:08:21.254Z,1006.51
2017-04-24T05:09:01.782Z,1006.51
2017-04-24T05:09:42.312Z,1006.55
2017-04-24T05:10:22.823Z,1006.56
2017-04-24T05:11:03.337Z,1006.52
2017-04-24T05:11:43.863Z,1006.54
2017-04-24T05:12:24.379Z,1006.54
2017-04-24T05:13:04.904Z,1006.56
2017-04-24T05:13:45.427Z,1006.57
2017-04-24T05:14:25.936Z,1006.58
2017-04-24T05:15:06.460Z,1006.59
2017-04-24T05:15:46.977Z,1006.55
2017-04-24T05:16:27.486Z,1006.59
2017-04-24T05:17:08.003Z,1006.56
2017-04-24T05:17:48.512Z,1006.57
2017-04-24T05:18:29.019Z,1006.57
2017-04-24T05:19:09.531Z,1006.56
2017-04-24T05:19:50.044Z,1006.56
2017-04-24T05:20:30.545Z,1006.56
2017-04-24T05:21:11.069Z,1006.57
2017-04-24T05:21:51.594Z,1006.59
2017-04-24T05:22:32.108Z,1006.57
2017-04-24T05:23:12.628Z,1006.63
2017-04-24T05:23:53.195Z,1006.56
2017-04-24T05:24:33.722Z,1006.62
2017-04-24T05:25:14.227Z,1006.59
2017-04-24T05:25:54.758Z,1006.57
2017-04-24T05:26:35.276Z,1006.55
2017-04-24T05:27:15.859Z,1006.56
2017-04-24T05:27:56.371Z,1006.55
2017-04-24T05:28:36.887Z,1006.52
2017-04-24T05:29:17.411Z,1006.51
2017-04-24T05:29:57.926Z,1006.52
2017-04-24T05:30:38.445Z,1006.53
2017-04-24T05:31:19.185Z,1006.52
2017-04-24T05:31:59.697Z,1006.54
2017-04-24T05:32:40.223Z,1006.57
2017-04-24T05:33:20.767Z,1006.54
2017-04-24T05:34:01.285Z,1006.59
2017-04-24T05:34:41.802Z,1006.57
2017-04-24T05:35:22.332Z,1006.57
2017-04-24T05:36:03.128Z,1006.58
2017-04-24T05:36:43.653Z,1006.57
2017-04-24T05:37:24.174Z,1006.57
2017-04-24T05:38:04.666Z,1006.54
2017-04-24T05:38:45.186Z,1006.55
2017-04-24T05:39:25.780Z,1006.54
2017-04-24T05:40:06.311Z,1006.53
2017-04-24T05:40:46.895Z,1006.58
2017-04-24T05:41:27.428Z,1006.59
2017-04-24T05:42:07.948Z,1006.61
2017-04-24T05:42:48.465Z,1006.57
2017-04-24T05:43:28.971Z,1006.57
2017-04-24T05:44:09.486Z,1006.55
2017-04-24T05:44:50.004Z,1006.55
2017-04-24T05:45:30.540Z,1006.53
2017-04-24T05:46:11.120Z,1006.49
2017-04-24T05:46:51.572Z,1006.48
2017-04-24T05:47:32.095Z,1006.43
2017-04-24T05:48:12.622Z,1006.46
2017-04-24T05:48:53.134Z,1006.44
2017-04-24T05:49:33.662Z,1006.45
2017-04-24T05:50:14.196Z,1006.41
2017-04-24T05:50:54.709Z,1006.41
2017-04-24T05:51:35.228Z,1006.44
2017-04-24T05:52:15.752Z,1006.4
2017-04-24T05:52:56.269Z,1006.43
2017-04-24T05:53:36.783Z,1006.45
2017-04-24T05:54:17.286Z,1006.41
2017-04-24T05:54:57.838Z,1006.43
2017-04-24T05:55:38.390Z,1006.42
2017-04-24T05:56:18.927Z,1006.44
2017-04-24T05:56:59.394Z,1006.39
2017-04-24T05:57:39.879Z,1006.44
2017-04-24T05:58:20.400Z,1006.45
2017-04-24T05:59:00.911Z,1006.44
2017-04-24T05:59:41.433Z,1006.41
2017-04-24T06:00:21.962Z,1006.37
2017-04-24T06:01:02.496Z,1006.44
2017-04-24T06:01:43.009Z,1006.44
2017-04-24T06:02:23.516Z,1006.39
2017-04-24T06:03:04.042Z,1006.41
2017-04-24T06:03:44.557Z,1006.37
2017-04-24T06:04:25.071Z,1006.42
2017-04-24T06:05:05.625Z,1006.38
2017-04-24T06:05:46.120Z,1006.4
2017-04-24T06:08:04.584Z,1006.33
2017-04-24T06:08:45.094Z,1006.35
2017-04-24T06:09:25.608Z,1006.33
2017-04-24T06:10:06.126Z,1006.28
2017-04-24T06:10:46.668Z,1006.32
2017-04-24T06:11:27.207Z,1006.3
2017-04-24T06:12:07.728Z,1006.28
2017-04-24T06:12:48.242Z,1006.31
2017-04-24T06:13:28.769Z,1006.27
2017-04-24T06:14:09.286Z,1006.31
2017-04-24T06:14:49.814Z,1006.34
2017-04-24T06:15:30.348Z,1006.34
2017-04-24T06:16:10.863Z,1006.36
2017-04-24T06:16:51.384Z,1006.29
2017-04-24T06:17:31.907Z,1006.29
2017-04-24T06:18:12.434Z,1006.31
2017-04-24T06:18:52.943Z,1006.31
2017-04-24T06:19:33.462Z,1006.31
2017-04-24T06:20:14.064Z,1006.29
2017-04-24T06:20:54.565Z,1006.29
2017-04-24T06:21:35.097Z,1006.24
2017-04-24T06:22:15.599Z,1006.28
2017-04-24T06:22:56.113Z,1006.31
2017-04-24T06:23:36.627Z,1006.27
2017-04-24T06:24:17.323Z,1006.22
2017-04-24T06:24:57.760Z,1006.22
2017-04-24T06:25:38.290Z,1006.24
2017-04-24T06:26:18.791Z,1006.24
2017-04-24T06:26:59.402Z,1006.27
2017-04-24T06:27:39.934Z,1006.28
2017-04-24T06:28:20.435Z,1006.28
2017-04-24T06:29:01.650Z,1006.26
2017-04-24T06:29:42.368Z,1006.27
2017-04-24T06:30:23.145Z,1006.28
2017-04-24T06:31:03.639Z,1006.25
2017-04-24T06:31:44.248Z,1006.26
2017-04-24T06:32:24.772Z,1006.26
2017-04-24T06:33:05.316Z,1006.26
2017-04-24T06:33:45.919Z,1006.32
2017-04-24T06:34:26.455Z,1006.28
2017-04-24T06:35:06.946Z,1006.25
2017-04-24T06:35:47.454Z,1006.26
2017-04-24T06:38:16.009Z,1006.22
2017-04-24T06:38:56.549Z,1006.28
2017-04-24T06:39:37.165Z,1006.24
2017-04-24T06:40:17.829Z,1006.19
2017-04-24T06:40:58.592Z,1006.21
2017-04-24T06:41:39.107Z,1006.23
2017-04-24T06:42:19.643Z,1006.21
2017-04-24T06:43:00.360Z,1006.23
2017-04-24T06:44:53.667Z,1006.2
2017-04-24T06:45:34.088Z,1006.19
2017-04-24T06:47:27.143Z,1006.21
2017-04-24T06:48:07.731Z,1006.18
2017-04-24T06:48:48.245Z,1006.22
2017-04-24T06:49:28.866Z,1006.14
2017-04-24T06:50:09.386Z,1006.18
2017-04-24T06:50:49.909Z,1006.16
2017-04-24T06:51:30.839Z,1006.19
2017-04-24T06:52:11.349Z,1006.24
2017-04-24T06:52:51.879Z,1006.19
2017-04-24T06:53:32.457Z,1006.19
2017-04-24T06:54:13.103Z,1006.19
2017-04-24T06:54:53.559Z,1006.18
2017-04-24T06:55:34.085Z,1006.19
2017-04-24T06:56:14.565Z,1006.22
2017-04-24T06:58:33.770Z,1006.16
2017-04-24T06:59:14.340Z,1006.13
2017-04-24T06:59:54.936Z,1006.07
2017-04-24T07:00:35.579Z,1006.09
2017-04-24T07:01:16.070Z,1006.09
2017-04-24T07:01:56.597Z,1006.1
2017-04-24T07:02:37.106Z,1006.06
2017-04-24T07:03:17.783Z,1006.09
2017-04-24T07:03:58.305Z,1006.12
2017-04-24T07:04:38.809Z,1006.09
2017-04-24T07:05:19.337Z,1006.1
2017-04-24T07:05:59.853Z,1006.11
2017-04-24T07:06:40.364Z,1006.08
2017-04-24T07:07:20.884Z,1006.06
2017-04-24T07:08:01.391Z,1006.01
2017-04-24T07:08:41.910Z,1006.06
2017-04-24T07:09:22.428Z,1006.03
2017-04-24T07:10:02.945Z,1005.99
2017-04-24T07:10:43.463Z,1006
2017-04-24T07:11:23.971Z,1006.01
2017-04-24T07:12:04.506Z,1005.96
2017-04-24T07:12:45.017Z,1005.97
2017-04-24T07:13:25.552Z,1005.97
2017-04-24T07:14:06.093Z,1005.95
2017-04-24T07:14:46.629Z,1005.91
2017-04-24T07:15:27.138Z,1005.81
2017-04-24T07:16:07.642Z,1005.88
2017-04-24T07:16:48.170Z,1005.89
2017-04-24T07:17:28.677Z,1005.81
2017-04-24T07:18:09.206Z,1005.78
2017-04-24T07:18:49.716Z,1005.81
2017-04-24T07:19:30.243Z,1005.74
2017-04-24T07:20:10.772Z,1005.78
2017-04-24T07:20:51.290Z,1005.8
2017-04-24T07:21:31.821Z,1005.75
2017-04-24T07:22:12.329Z,1005.72
2017-04-24T07:22:52.850Z,1005.73
2017-04-24T07:23:33.378Z,1005.74
2017-04-24T07:24:13.902Z,1005.74
2017-04-24T07:24:54.444Z,1005.78
2017-04-24T07:25:34.975Z,1005.74
2017-04-24T07:26:15.488Z,1005.8
2017-04-24T07:26:56.011Z,1005.79
2017-04-24T07:27:36.533Z,1005.77
2017-04-24T07:28:17.049Z,1005.8
2017-04-24T07:28:57.591Z,1005.74
2017-04-24T07:29:38.108Z,1005.76
2017-04-24T07:30:18.620Z,1005.75
2017-04-24T07:30:59.143Z,1005.75
2017-04-24T07:31:39.656Z,1005.74
2017-04-24T07:32:20.168Z,1005.76
2017-04-24T07:33:00.687Z,1005.77
2017-04-24T07:33:41.216Z,1005.73
2017-04-24T07:34:21.741Z,1005.71
2017-04-24T07:35:02.260Z,1005.74
2017-04-24T07:35:42.780Z,1005.66
2017-04-24T07:36:23.296Z,1005.7
2017-04-24T07:37:03.818Z,1005.72
2017-04-24T07:37:44.327Z,1005.67
2017-04-24T07:38:24.844Z,1005.66
2017-04-24T07:39:05.362Z,1005.68
2017-04-24T07:39:45.876Z,1005.62
2017-04-24T07:40:26.397Z,1005.62
2017-04-24T07:41:06.915Z,1005.66
2017-04-24T07:41:47.435Z,1005.66
2017-04-24T07:42:27.984Z,1005.63
2017-04-24T07:43:08.498Z,1005.64
2017-04-24T07:43:49.019Z,1005.64
2017-04-24T07:44:29.536Z,1005.63
2017-04-24T07:45:10.068Z,1005.63
2017-04-24T07:45:50.611Z,1005.57
2017-04-24T07:46:31.129Z,1005.61
2017-04-24T07:47:11.639Z,1005.56
2017-04-24T07:47:52.161Z,1005.56
2017-04-24T07:48:32.675Z,1005.55
2017-04-24T07:49:13.194Z,1005.54
2017-04-24T07:49:53.720Z,1005.51
2017-04-24T07:50:34.233Z,1005.54
2017-04-24T07:51:14.763Z,1005.54
2017-04-24T07:51:55.288Z,1005.53
2017-04-24T07:52:35.828Z,1005.52
2017-04-24T07:53:16.358Z,1005.52
2017-04-24T07:53:56.881Z,1005.51
2017-04-24T07:54:37.406Z,1005.52
2017-04-24T07:55:17.941Z,1005.5
2017-04-24T07:55:58.460Z,1005.52
2017-04-24T07:56:38.976Z,1005.47
2017-04-24T07:57:19.500Z,1005.45
2017-04-24T07:58:00.002Z,1005.51
2017-04-24T07:58:40.528Z,1005.46
2017-04-24T07:59:21.054Z,1005.41
2017-04-24T08:00:01.565Z,1005.48
2017-04-24T08:00:42.087Z,1005.45
2017-04-24T08:01:22.605Z,1005.4
2017-04-24T08:02:03.136Z,1005.41
2017-04-24T08:02:43.643Z,1005.34
2017-04-24T08:03:24.159Z,1005.35
2017-04-24T08:04:04.683Z,1005.38
2017-04-24T08:04:45.226Z,1005.34
2017-04-24T08:05:25.739Z,1005.34
2017-04-24T08:06:06.259Z,1005.33
2017-04-24T08:06:46.783Z,1005.3
2017-04-24T08:07:27.302Z,1005.31
2017-04-24T08:08:07.826Z,1005.31
2017-04-24T08:08:48.362Z,1005.27
2017-04-24T08:09:28.884Z,1005.26
2017-04-24T08:10:09.399Z,1005.25
2017-04-24T08:10:49.922Z,1005.24
2017-04-24T08:11:30.423Z,1005.28
2017-04-24T08:12:10.942Z,1005.23
2017-04-24T08:12:51.462Z,1005.23
2017-04-24T08:13:31.984Z,1005.19
2017-04-24T08:14:12.499Z,1005.21
2017-04-24T08:14:53.019Z,1005.2
2017-04-24T08:15:33.543Z,1005.19
2017-04-24T08:16:14.068Z,1005.17
2017-04-24T08:16:54.595Z,1005.2
2017-04-24T08:17:35.118Z,1005.12
2017-04-24T08:18:15.656Z,1005.19
2017-04-24T08:18:56.161Z,1005.2
2017-04-24T08:19:36.691Z,1005.11
2017-04-24T08:20:17.210Z,1005.13
2017-04-24T08:20:57.725Z,1005.09
2017-04-24T08:21:38.234Z,1005.09
2017-04-24T08:22:18.753Z,1005.11